Impacts TAF Board
For situational awareness. Not to be used for flight planning purposes.
IDs:

KGEG - Spokane Intl, WA, US

Issued at 1120 UTC 10 Jul 2020
Updated at 1230 UTC 10 Jul 2020
Potential Impact None Slight Moderate High
Time1153Z 10/13Z 10/14Z 10/15Z 10/16Z 10/17Z 10/18Z 10/19Z 10/20Z 10/21Z 10/22Z 10/23Z 11/00Z 11/01Z>>
Type OBS PRVL PRVL PRVL PRVL PRVL PRVL PRVL PRVL PRVL PRVL PRVL PRVL PRVL
VIS 10 >6 >6 >6 >6 >6 >6 >6 >6 >6 >6 >6 >6 >6
CIG 80 -- -- -- -- -- -- -- -- -- -- -- -- --
Cover BKN SCT SCT SCT SCT SCT FEW FEW FEW FEW FEW FEW FEW FEW
FltCat VFR VFR VFR VFR VFR VFR VFR VFR VFR VFR VFR VFR VFR VFR
WX -- -- -- -- -- -- -- -- -- -- -- -- -- --
WDir 190 190 190 190 190 190 220 220 220 220 220 220 220 220
WSpd 10 8 8 8 8 8 10 10 10 10 10 10 10 10
WGst -- -- -- -- -- -- 14 14 14 14 14 14 14 14
Raw TAF
KGEG 101120Z 1012/1112 19008KT P6SM SCT100
  FM101800 22010G14KT P6SM FEW080
  FM110200 VRB03KT P6SM SKC


Raw METAR
KGEG 101153Z 19010KT 10SM FEW035 SCT065 BKN080 14/09 A3004 RMK AO2 SLP158 T01440094 10200 20144 53017
KGEG 101053Z 19011KT 10SM FEW050 SCT065 BKN085 15/09 A3002 RMK AO2 SLP150 T01500094
KGEG 100953Z 20011KT 10SM FEW080 BKN090 16/09 A2999 RMK AO2 SLP142 T01610089

METAR Board
Radar Display
Forecast Discussion
For situational awareness. Not to be used for flight planning purposes.